Kersti — 9HA4127 — position and weather

sailwx.info

Track history (hours):
 
Tides and Currents Weather Stations Pressure Air Temp Water Temp Dewpoint Dewpoint Depression Visibility Wind Speed Wind Dir Waves Ship Positions

Kersti

Last reported at 2017-Oct-17 22:31 UTC. Time now 2017-Oct-17 22:52 UTC.
Position N 54°47' E 019°23'.

Length 107 m; draft 5.6 m.

Type: Cargo ship. MMSI: 249145000.

Date/timePositionNaut miles runAvg speedWind from/ knotsBaromVisibWave heightAir tempDewpointWater temp
2017-Oct-17 22:31N 54°47' E 019°23'2 3.4
2017-Oct-17 22:00N 54°48' E 019°20'2 3.1
2017-Oct-17 21:30N 54°48' E 019°18'2 3.1
2017-Oct-17 21:00N 54°49' E 019°15'2 3.2
2017-Oct-17 20:31N 54°49' E 019°13'3 5.3
2017-Oct-17 20:00N 54°50' E 019°08'5 9.6
2017-Oct-17 19:31N 54°52' E 019°00'5 9.8
2017-Oct-17 19:01N 54°53' E 018°52'510.1
2017-Oct-17 18:30N 54°55' E 018°44'510.2
2017-Oct-17 18:00N 54°57' E 018°36'510.2
2017-Oct-17 17:30N 54°58' E 018°27'510.3
2017-Oct-17 17:00N 54°60' E 018°19'510.0
2017-Oct-17 16:30N 54°59' E 018°10'510.2
2017-Oct-17 16:00N 54°58' E 018°02'2310.1
2017-Oct-17 13:47N 54°53' E 017°23'310.2
2017-Oct-17 13:28N 54°52' E 017°18'510.2
2017-Oct-17 12:59N 54°51' E 017°10'510.2
2017-Oct-17 12:30N 54°50' E 017°01'510.2
2017-Oct-17 12:00N 54°48' E 016°53'510.1
2017-Oct-17 11:30N 54°48' E 016°44'510.1
2017-Oct-17 11:00N 54°47' E 016°35'510.0
2017-Oct-17 10:30N 54°47' E 016°27'510.1
2017-Oct-17 10:00N 54°48' E 016°18'510.1
2017-Oct-17 09:31N 54°48' E 016°09'510.2
2017-Oct-17 09:00N 54°49' E 016°01'510.4
2017-Oct-17 08:30N 54°49' E 015°52'1810.4
2017-Oct-17 06:47N 54°51' E 015°21'310.2
2017-Oct-17 06:30N 54°51' E 015°16'510.0
2017-Oct-17 06:00N 54°52' E 015°07'510.1
2017-Oct-17 05:30N 54°52' E 014°58'510.2
2017-Oct-17 05:00N 54°53' E 014°50'510.1
2017-Oct-17 04:30N 54°54' E 014°41'510.0
2017-Oct-17 04:00N 54°55' E 014°32'510.0
2017-Oct-17 03:30N 54°56' E 014°24'610.1
2017-Oct-17 02:56N 54°58' E 014°14'13 9.9
2017-Oct-17 01:36N 55°01' E 013°52'1 9.5
2017-Oct-17 01:27N 55°02' E 013°50'6 9.8
2017-Oct-17 00:49N 55°04' E 013°40'310.2
2017-Oct-17 00:30N 55°05' E 013°35'610.2
2017-Oct-16 23:53N 55°08' E 013°24'410.2
2017-Oct-16 23:29N 55°09' E 013°18'510.1
2017-Oct-16 22:58N 55°11' E 013°09'5 9.8
2017-Oct-16 22:30N 55°13' E 013°02'510.0
2017-Oct-16 22:00N 55°14' E 012°54'510.2
2017-Oct-16 21:30N 55°16' E 012°45'5 9.2
2017-Oct-16 21:00N 55°19' E 012°39'5 9.5
2017-Oct-16 20:30N 55°24' E 012°39'510.1
2017-Oct-16 20:00N 55°28' E 012°41'510.1
2017-Oct-16 19:30N 55°33' E 012°42'510.2
2017-Oct-16 19:00N 55°39' E 012°41'510.2
2017-Oct-16 18:30N 55°44' E 012°41'510.2
2017-Oct-16 18:00N 55°49' E 012°40'5 9.9
2017-Oct-16 17:30N 55°54' E 012°38'5 9.9
2017-Oct-16 17:00N 55°59' E 012°37'5 9.8
2017-Oct-16 16:30N 56°03' E 012°38'611.1
2017-Oct-16 16:00N 56°07' E 012°31'510.0
2017-Oct-16 15:30N 56°10' E 012°23'36 9.2
2017-Oct-16 11:35N 56°42' E 011°54'210.6
2017-Oct-16 11:22N 56°44' E 011°53'410.9
2017-Oct-16 10:59N 56°48' E 011°50'610.6
2017-Oct-16 10:28N 56°53' E 011°47'5 9.9
2017-Oct-16 10:00N 56°58' E 011°44'5 9.6
2017-Oct-16 09:28N 57°02' E 011°41'5 9.5
2017-Oct-16 08:58N 57°07' E 011°38'6 9.7
2017-Oct-16 08:20N 57°13' E 011°34'3 9.8
2017-Oct-16 08:00N 57°16' E 011°32'5 9.9
2017-Oct-16 07:30N 57°20' E 011°29'5 9.9
2017-Oct-16 07:00N 57°25' E 011°25'5 9.8
2017-Oct-16 06:30N 57°29' E 011°20'510.2
2017-Oct-16 06:00N 57°32' E 011°13'611.3
2017-Oct-16 05:30N 57°36' E 011°05'510.8
2017-Oct-16 05:00N 57°40' E 010°59'510.0
2017-Oct-16 04:30N 57°44' E 010°52'510.7
2017-Oct-16 04:00N 57°47' E 010°44'510.9
2017-Oct-16 03:30N 57°47' E 010°33'810.8
2017-Oct-16 02:47N 57°47' E 010°19'4210.8
2017-Oct-15 22:51N 57°44' E 008°60'510.7
2017-Oct-15 22:22N 57°44' E 008°50'410.6
2017-Oct-15 22:00N 57°44' E 008°43'30 9.7
2017-Oct-15 18:52N 57°42' E 007°46'3 8.9
2017-Oct-15 18:30N 57°43' E 007°40'4 8.8
2017-Oct-15 18:00N 57°45' E 007°32'4 8.6
2017-Oct-15 17:30N 57°46' E 007°25'4 8.7
2017-Oct-15 17:00N 57°48' E 007°18'4 8.3
2017-Oct-15 16:30N 57°50' E 007°11'4 8.2
2017-Oct-15 16:00N 57°52' E 007°04'4 8.4
2017-Oct-15 15:30N 57°53' E 006°57'4 8.7
2017-Oct-15 15:00N 57°55' E 006°49'8 8.4
2017-Oct-15 14:00N 57°59' E 006°35'4 7.6
2017-Oct-15 13:30N 58°02' E 006°30'4 8.1
2017-Oct-15 13:00N 58°05' E 006°26'4 8.7
2017-Oct-15 12:30N 58°09' E 006°22'4 8.6
2017-Oct-15 12:00N 58°13' E 006°19'4 8.3
2017-Oct-15 11:30N 58°17' E 006°15'3 6.1
2017-Oct-15 11:00N 58°20' E 006°15'0 0.0
2017-Oct-15 10:29N 58°20' E 006°15'0 0.0
2017-Oct-15 09:56N 58°20' E 006°15'0 0.0
2017-Oct-15 09:29N 58°20' E 006°15'0 0.0
2017-Oct-15 08:59N 58°20' E 006°15'0 0.0
2017-Oct-15 08:29N 58°20' E 006°15'0 0.0
2017-Oct-15 07:56N 58°20' E 006°15'0 0.0
2017-Oct-15 07:28N 58°20' E 006°15'0 0.0
2017-Oct-15 06:59N 58°20' E 006°15'0 0.0
2017-Oct-15 06:29N 58°20' E 006°15'0 0.0
2017-Oct-15 05:59N 58°20' E 006°15'0 0.0
2017-Oct-15 05:29N 58°20' E 006°15'0 0.0
2017-Oct-15 04:58N 58°20' E 006°15'0 0.0
2017-Oct-15 04:29N 58°20' E 006°15'0 0.0
2017-Oct-15 03:59N 58°20' E 006°15'0 0.0
2017-Oct-15 03:29N 58°20' E 006°15'0 0.0
2017-Oct-15 02:59N 58°20' E 006°15'0 0.0
2017-Oct-15 02:29N 58°20' E 006°15'0 0.0
2017-Oct-15 01:59N 58°20' E 006°15'0 0.0
2017-Oct-15 01:26N 58°20' E 006°15'0 0.0
2017-Oct-15 00:59N 58°20' E 006°15'0 0.0
2017-Oct-15 00:29N 58°20' E 006°15'0 0.0
2017-Oct-14 23:56N 58°20' E 006°15'0 0.0
2017-Oct-14 23:29N 58°20' E 006°15'0 0.0
2017-Oct-14 22:59N 58°20' E 006°15'0 0.0
2017-Oct-14 22:29N 58°20' E 006°15'0 0.0
2017-Oct-14 21:59N 58°20' E 006°15'0 0.2
2017-Oct-14 21:29N 58°20' E 006°16'0 0.1
2017-Oct-14 20:59N 58°20' E 006°16'0 0.0
2017-Oct-14 20:29N 58°20' E 006°16'0 0.0
2017-Oct-14 19:59N 58°20' E 006°16'0 0.0
2017-Oct-14 19:23N 58°20' E 006°16'0 0.0
2017-Oct-14 18:56N 58°20' E 006°16'0 0.0
2017-Oct-14 18:29N 58°20' E 006°16'0 0.0
2017-Oct-14 17:56N 58°20' E 006°16'0 0.0
2017-Oct-14 17:29N 58°20' E 006°16'0 0.0
2017-Oct-14 16:56N 58°20' E 006°16'0 0.0
2017-Oct-14 16:26N 58°20' E 006°16'0 0.0
2017-Oct-14 15:59N 58°20' E 006°16'0 0.0
2017-Oct-14 15:29N 58°20' E 006°16'0 0.0
2017-Oct-14 14:59N 58°20' E 006°16'0 0.0
2017-Oct-14 14:29N 58°20' E 006°16'0 0.0
2017-Oct-14 13:59N 58°20' E 006°16'0 0.0
2017-Oct-14 13:29N 58°20' E 006°16'0 0.0
2017-Oct-14 12:59N 58°20' E 006°16'0 0.0
2017-Oct-14 12:26N 58°20' E 006°16'0 0.0
2017-Oct-14 11:56N 58°20' E 006°16'0 0.0
2017-Oct-14 11:29N 58°20' E 006°16'0 0.0
2017-Oct-14 10:59N 58°20' E 006°16'0 0.0
2017-Oct-14 10:29N 58°20' E 006°16'0 0.0
2017-Oct-14 09:56N 58°20' E 006°16'0 0.0
2017-Oct-14 09:29N 58°20' E 006°16'0 0.0
2017-Oct-14 08:59N 58°20' E 006°16'0 0.0
2017-Oct-14 08:29N 58°20' E 006°16'0 0.0
2017-Oct-14 07:59N 58°20' E 006°16'0 0.1
2017-Oct-14 07:30N 58°20' E 006°16'3 6.0
2017-Oct-14 06:59N 58°18' E 006°11'511.0
2017-Oct-14 06:30N 58°18' E 006°01'511.0
2017-Oct-14 06:00N 58°17' E 005°51'510.4
2017-Oct-14 05:30N 58°17' E 005°41'510.3
2017-Oct-14 05:00N 58°17' E 005°31'30 9.8
2017-Oct-14 01:54N 58°21' E 004°34'4 9.8
2017-Oct-14 01:30N 58°22' E 004°26'5 9.8
2017-Oct-14 01:01N 58°22' E 004°17'910.0
2017-Oct-14 00:04N 58°22' E 003°59'211 9.0
2017-Oct-13 00:38N 58°42' W 002°42'1 9.9
2017-Oct-13 00:30N 58°42' W 002°45'510.2
2017-Oct-13 00:00N 58°43' W 002°54'612.0
2017-Oct-12 23:30N 58°43' W 003°06'611.7
2017-Oct-12 23:00N 58°43' W 003°17'510.4
2017-Oct-12 22:30N 58°42' W 003°27'510.6
2017-Oct-12 22:00N 58°42' W 003°38'510.9
2017-Oct-12 21:30N 58°42' W 003°48'510.7
2017-Oct-12 21:00N 58°42' W 003°58'510.4
2017-Oct-12 20:30N 58°41' W 004°08'36 9.0
2017-Oct-12 16:30N 58°31' W 005°14'164 9.3
2017-Oct-11 22:50N 55°55' W 006°52'3 8.0
2017-Oct-11 22:29N 55°53' W 006°50'4 8.1
2017-Oct-11 22:00N 55°49' W 006°46'4 8.0
2017-Oct-11 21:30N 55°46' W 006°43'4 8.5
2017-Oct-11 21:00N 55°42' W 006°39'4 8.6
2017-Oct-11 20:30N 55°39' W 006°35'4 8.4
2017-Oct-11 20:00N 55°36' W 006°30'5 9.7
2017-Oct-11 19:30N 55°32' W 006°24'510.4
2017-Oct-11 19:00N 55°28' W 006°17'5 9.7
2017-Oct-11 18:30N 55°26' W 006°10'511.0
2017-Oct-11 18:00N 55°23' W 006°02'612.5
2017-Oct-11 17:30N 55°18' W 005°55'613.1
2017-Oct-11 17:00N 55°13' W 005°48'146 8.6
2017-Oct-11 00:00N 53°24' W 003°01'4 7.4
2017-Oct-10 23:30N 53°21' W 002°58'2 3.5
2017-Oct-10 23:00N 53°19' W 002°57'0 0.8
2017-Oct-10 22:30N 53°19' W 002°56'3 5.6
2017-Oct-10 22:00N 53°17' W 002°53'3 5.3
2017-Oct-10 21:30N 53°17' W 002°48'3 5.6
2017-Oct-10 21:00N 53°20' W 002°46'1 1.2
2017-Oct-10 20:30N 53°20' W 002°45'0 0.0
2017-Oct-10 19:55N 53°20' W 002°45'0 0.0
2017-Oct-10 19:28N 53°20' W 002°45'0 0.0
2017-Oct-10 18:58N 53°20' W 002°45'0 0.0
2017-Oct-10 18:22N 53°20' W 002°45'0 0.0
2017-Oct-10 17:58N 53°20' W 002°45'0 0.0
2017-Oct-10 17:28N 53°20' W 002°45'0 0.0
2017-Oct-10 16:58N 53°20' W 002°45'0 0.0
2017-Oct-10 16:28N 53°20' W 002°45'0 0.0
2017-Oct-10 15:58N 53°20' W 002°45'0 0.0
2017-Oct-10 15:28N 53°20' W 002°45'0 0.0
2017-Oct-10 14:58N 53°20' W 002°45'0 0.0
2017-Oct-10 13:58N 53°20' W 002°45'0 0.0
2017-Oct-10 13:28N 53°20' W 002°45'0 0.0
2017-Oct-10 12:58N 53°20' W 002°45'0 0.0
2017-Oct-10 12:22N 53°20' W 002°45'0 0.0
2017-Oct-10 11:58N 53°20' W 002°45'0 0.0
2017-Oct-10 11:28N 53°20' W 002°45'0 0.0
2017-Oct-10 10:58N 53°20' W 002°45'0 0.0
2017-Oct-10 10:28N 53°20' W 002°45'0 0.0
2017-Oct-10 09:58N 53°20' W 002°45'0 0.0
2017-Oct-10 09:28N 53°20' W 002°45'0 0.0
2017-Oct-10 08:58N 53°20' W 002°45'0 0.0
2017-Oct-10 08:28N 53°20' W 002°45'0 0.0
2017-Oct-10 07:58N 53°20' W 002°45'0 0.0
2017-Oct-10 07:28N 53°20' W 002°45'0 0.0
2017-Oct-10 06:58N 53°20' W 002°45'0 0.0
2017-Oct-10 06:28N 53°20' W 002°45'0 0.0
2017-Oct-10 05:55N 53°20' W 002°45'0 0.0
2017-Oct-10 05:28N 53°20' W 002°45'0 0.0
2017-Oct-10 04:55N 53°20' W 002°45'0 0.0
2017-Oct-10 04:28N 53°20' W 002°45'0 0.0
2017-Oct-10 03:58N 53°20' W 002°45'0 0.0
2017-Oct-10 03:28N 53°20' W 002°45'0 0.0
2017-Oct-10 02:58N 53°20' W 002°45'0 0.0
2017-Oct-10 02:28N 53°20' W 002°45'0 0.0
2017-Oct-10 01:58N 53°20' W 002°45'0 0.0
2017-Oct-10 01:28N 53°20' W 002°45'0 0.0
2017-Oct-10 00:58N 53°20' W 002°45'0 0.0
2017-Oct-10 00:25N 53°20' W 002°45'0 0.0
2017-Oct-09 23:49N 53°20' W 002°45'0 0.0
2017-Oct-09 23:28N 53°20' W 002°45'0 0.0
2017-Oct-09 22:58N 53°20' W 002°45'0 0.0
2017-Oct-09 22:28N 53°20' W 002°45'0 0.0
2017-Oct-09 21:58N 53°20' W 002°45'0 0.0
2017-Oct-09 21:28N 53°20' W 002°45'0 0.0
2017-Oct-09 20:58N 53°20' W 002°45'0 0.0
2017-Oct-09 20:28N 53°20' W 002°45'0 0.0
2017-Oct-09 19:58N 53°20' W 002°45'0 0.0
2017-Oct-09 19:28N 53°20' W 002°45'0 0.0
2017-Oct-09 18:58N 53°20' W 002°45'0 0.0
2017-Oct-09 18:28N 53°20' W 002°45'0 0.0
2017-Oct-09 17:58N 53°20' W 002°45'0 0.0
2017-Oct-09 17:28N 53°20' W 002°45'0 0.0
2017-Oct-09 16:58N 53°20' W 002°45'0 0.0
2017-Oct-09 16:28N 53°20' W 002°45'0 0.0
2017-Oct-09 15:58N 53°20' W 002°45'0 0.0
2017-Oct-09 15:28N 53°20' W 002°45'0 0.0
2017-Oct-09 14:46N 53°20' W 002°45'0 0.0
2017-Oct-09 14:28N 53°20' W 002°45'0 0.0
2017-Oct-09 13:58N 53°20' W 002°45'0 0.0
2017-Oct-09 13:28N 53°20' W 002°45'0 0.0
2017-Oct-09 12:58N 53°20' W 002°45'0 0.0
2017-Oct-09 12:07N 53°20' W 002°45'0 0.0
2017-Oct-09 11:55N 53°20' W 002°45'0 0.0
2017-Oct-09 11:28N 53°20' W 002°45'0 0.0
2017-Oct-09 10:58N 53°20' W 002°45'0 0.0
2017-Oct-09 10:28N 53°20' W 002°45'0 0.0
2017-Oct-09 09:58N 53°20' W 002°45'0 0.0
2017-Oct-09 09:28N 53°20' W 002°45'0 0.0
2017-Oct-09 08:58N 53°20' W 002°45'0 0.0
2017-Oct-09 08:28N 53°20' W 002°45'0 0.0
2017-Oct-09 07:58N 53°20' W 002°45'0 0.0
2017-Oct-09 07:16N 53°20' W 002°45'0 0.0
2017-Oct-09 06:58N 53°20' W 002°45'0 0.0
2017-Oct-09 06:28N 53°20' W 002°45'0 0.0
2017-Oct-09 05:58N 53°20' W 002°45'0 0.0
2017-Oct-09 05:28N 53°20' W 002°45'0 0.0
2017-Oct-09 04:58N 53°20' W 002°45'0 0.0
2017-Oct-09 04:28N 53°20' W 002°45'0 0.0
2017-Oct-09 03:58N 53°20' W 002°45'0 0.0
2017-Oct-09 03:28N 53°20' W 002°45'0 0.0
2017-Oct-09 02:58N 53°20' W 002°45'0 0.0
2017-Oct-09 02:28N 53°20' W 002°45'0 0.0
2017-Oct-09 01:58N 53°20' W 002°45'0 0.0
2017-Oct-09 01:28N 53°20' W 002°45'0 0.0
2017-Oct-09 00:58N 53°20' W 002°45'0 0.0
2017-Oct-09 00:28N 53°20' W 002°45'0 0.0
2017-Oct-08 23:58N 53°20' W 002°45'0 0.0
2017-Oct-08 23:25N 53°20' W 002°45'0 0.0
2017-Oct-08 22:52N 53°20' W 002°45'0 0.0
2017-Oct-08 22:28N 53°20' W 002°45'0 0.0
2017-Oct-08 21:55N 53°20' W 002°45'0 0.0
2017-Oct-08 21:28N 53°20' W 002°45'0 0.0
2017-Oct-08 20:55N 53°20' W 002°45'0 0.0
2017-Oct-08 20:28N 53°20' W 002°45'0 0.0
2017-Oct-08 19:58N 53°20' W 002°45'0 0.0
2017-Oct-08 19:28N 53°20' W 002°45'0 0.0
2017-Oct-08 18:58N 53°20' W 002°45'0 0.0
2017-Oct-08 18:22N 53°20' W 002°45'0 0.0
2017-Oct-08 17:58N 53°20' W 002°45'0 0.0
2017-Oct-08 17:28N 53°20' W 002°45'0 0.0
2017-Oct-08 16:58N 53°20' W 002°45'0 0.2
2017-Oct-08 16:30N 53°20' W 002°45'1 1.3
2017-Oct-08 16:00N 53°20' W 002°46'2 4.3
2017-Oct-08 15:30N 53°18' W 002°47'3 5.6
2017-Oct-08 15:00N 53°17' W 002°51'2 4.6
2017-Oct-08 14:30N 53°18' W 002°55'2 3.3
2017-Oct-08 14:00N 53°19' W 002°57'1 1.4
2017-Oct-08 13:30N 53°20' W 002°57'3 5.2
2017-Oct-08 13:00N 53°22' W 002°59'3 5.3
2017-Oct-08 12:30N 53°25' W 003°01'4 8.9
2017-Oct-08 12:00N 53°29' W 003°05'4 8.8
2017-Oct-08 11:30N 53°32' W 003°10'5 9.9
2017-Oct-08 11:00N 53°32' W 003°18'2 4.4
2017-Oct-08 10:30N 53°31' W 003°22'3 5.8
2017-Oct-08 10:00N 53°29' W 003°24'0 0.2
2017-Oct-08 09:26N 53°28' W 003°24'0 0.0
2017-Oct-08 08:59N 53°28' W 003°24'0 0.0
2017-Oct-08 08:29N 53°28' W 003°24'0 0.0
2017-Oct-08 07:59N 53°28' W 003°24'0 0.0
2017-Oct-08 07:26N 53°28' W 003°24'0 0.0
2017-Oct-08 06:59N 53°28' W 003°24'0 0.3
2017-Oct-08 06:29N 53°28' W 003°24'0 0.1
2017-Oct-08 05:59N 53°28' W 003°24'0 0.0
2017-Oct-08 05:29N 53°28' W 003°24'0 0.0
2017-Oct-08 04:59N 53°28' W 003°24'0 0.0
2017-Oct-08 04:26N 53°28' W 003°24'0 0.0
2017-Oct-08 03:59N 53°28' W 003°24'0 0.0
2017-Oct-08 03:29N 53°28' W 003°24'0 0.0
2017-Oct-08 02:59N 53°28' W 003°24'0 0.0
2017-Oct-08 02:29N 53°28' W 003°24'0 0.0
2017-Oct-08 01:59N 53°28' W 003°24'0 0.2
2017-Oct-08 01:29N 53°28' W 003°24'0 0.2
2017-Oct-08 00:59N 53°28' W 003°24'0 0.1
2017-Oct-08 00:29N 53°28' W 003°24'0 0.0
2017-Oct-07 23:59N 53°28' W 003°24'0 0.0
2017-Oct-07 23:26N 53°28' W 003°24'0 0.0
2017-Oct-07 22:59N 53°28' W 003°24'  
Track history (hours):
 
Tides and Currents Weather Stations Pressure Air Temp Water Temp Dewpoint Dewpoint Depression Visibility Wind Speed Wind Dir Waves Ship Positions

Kersti

Last reported at 2017-Oct-17 22:31 UTC. Time now 2017-Oct-17 22:52 UTC.
Position N 54°47' E 019°23'.

Length 107 m; draft 5.6 m.

Type: Cargo ship. MMSI: 249145000.

Date/timePositionNaut miles runAvg speedWind from/ knotsBaromVisibWave heightAir tempDewpointWater temp
2017-Oct-17 22:31N 54°47' E 019°23'2 3.4
2017-Oct-17 22:00N 54°48' E 019°20'2 3.1
2017-Oct-17 21:30N 54°48' E 019°18'2 3.1
2017-Oct-17 21:00N 54°49' E 019°15'2 3.2
2017-Oct-17 20:31N 54°49' E 019°13'3 5.3
2017-Oct-17 20:00N 54°50' E 019°08'5 9.6
2017-Oct-17 19:31N 54°52' E 019°00'5 9.8
2017-Oct-17 19:01N 54°53' E 018°52'510.1
2017-Oct-17 18:30N 54°55' E 018°44'510.2
2017-Oct-17 18:00N 54°57' E 018°36'510.2
2017-Oct-17 17:30N 54°58' E 018°27'510.3
2017-Oct-17 17:00N 54°60' E 018°19'510.0
2017-Oct-17 16:30N 54°59' E 018°10'510.2
2017-Oct-17 16:00N 54°58' E 018°02'2310.1
2017-Oct-17 13:47N 54°53' E 017°23'310.2
2017-Oct-17 13:28N 54°52' E 017°18'510.2
2017-Oct-17 12:59N 54°51' E 017°10'510.2
2017-Oct-17 12:30N 54°50' E 017°01'510.2
2017-Oct-17 12:00N 54°48' E 016°53'510.1
2017-Oct-17 11:30N 54°48' E 016°44'510.1
2017-Oct-17 11:00N 54°47' E 016°35'510.0
2017-Oct-17 10:30N 54°47' E 016°27'510.1
2017-Oct-17 10:00N 54°48' E 016°18'510.1
2017-Oct-17 09:31N 54°48' E 016°09'510.2
2017-Oct-17 09:00N 54°49' E 016°01'510.4
2017-Oct-17 08:30N 54°49' E 015°52'1810.4
2017-Oct-17 06:47N 54°51' E 015°21'310.2
2017-Oct-17 06:30N 54°51' E 015°16'510.0
2017-Oct-17 06:00N 54°52' E 015°07'510.1
2017-Oct-17 05:30N 54°52' E 014°58'510.2
2017-Oct-17 05:00N 54°53' E 014°50'510.1
2017-Oct-17 04:30N 54°54' E 014°41'510.0
2017-Oct-17 04:00N 54°55' E 014°32'510.0
2017-Oct-17 03:30N 54°56' E 014°24'610.1
2017-Oct-17 02:56N 54°58' E 014°14'13 9.9
2017-Oct-17 01:36N 55°01' E 013°52'1 9.5
2017-Oct-17 01:27N 55°02' E 013°50'6 9.8
2017-Oct-17 00:49N 55°04' E 013°40'310.2
2017-Oct-17 00:30N 55°05' E 013°35'610.2
2017-Oct-16 23:53N 55°08' E 013°24'410.2
2017-Oct-16 23:29N 55°09' E 013°18'510.1
2017-Oct-16 22:58N 55°11' E 013°09'5 9.8
2017-Oct-16 22:30N 55°13' E 013°02'510.0
2017-Oct-16 22:00N 55°14' E 012°54'510.2
2017-Oct-16 21:30N 55°16' E 012°45'5 9.2
2017-Oct-16 21:00N 55°19' E 012°39'5 9.5
2017-Oct-16 20:30N 55°24' E 012°39'510.1
2017-Oct-16 20:00N 55°28' E 012°41'510.1
2017-Oct-16 19:30N 55°33' E 012°42'510.2
2017-Oct-16 19:00N 55°39' E 012°41'510.2
2017-Oct-16 18:30N 55°44' E 012°41'510.2
2017-Oct-16 18:00N 55°49' E 012°40'5 9.9
2017-Oct-16 17:30N 55°54' E 012°38'5 9.9
2017-Oct-16 17:00N 55°59' E 012°37'5 9.8
2017-Oct-16 16:30N 56°03' E 012°38'611.1
2017-Oct-16 16:00N 56°07' E 012°31'510.0
2017-Oct-16 15:30N 56°10' E 012°23'36 9.2
2017-Oct-16 11:35N 56°42' E 011°54'210.6
2017-Oct-16 11:22N 56°44' E 011°53'410.9
2017-Oct-16 10:59N 56°48' E 011°50'610.6
2017-Oct-16 10:28N 56°53' E 011°47'5 9.9
2017-Oct-16 10:00N 56°58' E 011°44'5 9.6
2017-Oct-16 09:28N 57°02' E 011°41'5 9.5
2017-Oct-16 08:58N 57°07' E 011°38'6 9.7
2017-Oct-16 08:20N 57°13' E 011°34'3 9.8
2017-Oct-16 08:00N 57°16' E 011°32'5 9.9
2017-Oct-16 07:30N 57°20' E 011°29'5 9.9
2017-Oct-16 07:00N 57°25' E 011°25'5 9.8
2017-Oct-16 06:30N 57°29' E 011°20'510.2
2017-Oct-16 06:00N 57°32' E 011°13'611.3
2017-Oct-16 05:30N 57°36' E 011°05'510.8
2017-Oct-16 05:00N 57°40' E 010°59'510.0
2017-Oct-16 04:30N 57°44' E 010°52'510.7
2017-Oct-16 04:00N 57°47' E 010°44'510.9
2017-Oct-16 03:30N 57°47' E 010°33'810.8
2017-Oct-16 02:47N 57°47' E 010°19'4210.8
2017-Oct-15 22:51N 57°44' E 008°60'510.7
2017-Oct-15 22:22N 57°44' E 008°50'410.6
2017-Oct-15 22:00N 57°44' E 008°43'30 9.7
2017-Oct-15 18:52N 57°42' E 007°46'3 8.9
2017-Oct-15 18:30N 57°43' E 007°40'4 8.8
2017-Oct-15 18:00N 57°45' E 007°32'4 8.6
2017-Oct-15 17:30N 57°46' E 007°25'4 8.7
2017-Oct-15 17:00N 57°48' E 007°18'4 8.3
2017-Oct-15 16:30N 57°50' E 007°11'4 8.2
2017-Oct-15 16:00N 57°52' E 007°04'4 8.4
2017-Oct-15 15:30N 57°53' E 006°57'4 8.7
2017-Oct-15 15:00N 57°55' E 006°49'8 8.4
2017-Oct-15 14:00N 57°59' E 006°35'4 7.6
2017-Oct-15 13:30N 58°02' E 006°30'4 8.1
2017-Oct-15 13:00N 58°05' E 006°26'4 8.7
2017-Oct-15 12:30N 58°09' E 006°22'4 8.6
2017-Oct-15 12:00N 58°13' E 006°19'4 8.3
2017-Oct-15 11:30N 58°17' E 006°15'3 6.1
2017-Oct-15 11:00N 58°20' E 006°15'0 0.0
2017-Oct-15 10:29N 58°20' E 006°15'0 0.0
2017-Oct-15 09:56N 58°20' E 006°15'0 0.0
2017-Oct-15 09:29N 58°20' E 006°15'0 0.0
2017-Oct-15 08:59N 58°20' E 006°15'0 0.0
2017-Oct-15 08:29N 58°20' E 006°15'0 0.0
2017-Oct-15 07:56N 58°20' E 006°15'0 0.0
2017-Oct-15 07:28N 58°20' E 006°15'0 0.0
2017-Oct-15 06:59N 58°20' E 006°15'0 0.0
2017-Oct-15 06:29N 58°20' E 006°15'0 0.0
2017-Oct-15 05:59N 58°20' E 006°15'0 0.0
2017-Oct-15 05:29N 58°20' E 006°15'0 0.0
2017-Oct-15 04:58N 58°20' E 006°15'0 0.0
2017-Oct-15 04:29N 58°20' E 006°15'0 0.0
2017-Oct-15 03:59N 58°20' E 006°15'0 0.0
2017-Oct-15 03:29N 58°20' E 006°15'0 0.0
2017-Oct-15 02:59N 58°20' E 006°15'0 0.0
2017-Oct-15 02:29N 58°20' E 006°15'0 0.0
2017-Oct-15 01:59N 58°20' E 006°15'0 0.0
2017-Oct-15 01:26N 58°20' E 006°15'0 0.0
2017-Oct-15 00:59N 58°20' E 006°15'0 0.0
2017-Oct-15 00:29N 58°20' E 006°15'0 0.0
2017-Oct-14 23:56N 58°20' E 006°15'0 0.0
2017-Oct-14 23:29N 58°20' E 006°15'0 0.0
2017-Oct-14 22:59N 58°20' E 006°15'0 0.0
2017-Oct-14 22:29N 58°20' E 006°15'0 0.0
2017-Oct-14 21:59N 58°20' E 006°15'0 0.2
2017-Oct-14 21:29N 58°20' E 006°16'0 0.1
2017-Oct-14 20:59N 58°20' E 006°16'0 0.0
2017-Oct-14 20:29N 58°20' E 006°16'0 0.0
2017-Oct-14 19:59N 58°20' E 006°16'0 0.0
2017-Oct-14 19:23N 58°20' E 006°16'0 0.0
2017-Oct-14 18:56N 58°20' E 006°16'0 0.0
2017-Oct-14 18:29N 58°20' E 006°16'0 0.0
2017-Oct-14 17:56N 58°20' E 006°16'0 0.0
2017-Oct-14 17:29N 58°20' E 006°16'0 0.0
2017-Oct-14 16:56N 58°20' E 006°16'0 0.0
2017-Oct-14 16:26N 58°20' E 006°16'0 0.0
2017-Oct-14 15:59N 58°20' E 006°16'0 0.0
2017-Oct-14 15:29N 58°20' E 006°16'0 0.0
2017-Oct-14 14:59N 58°20' E 006°16'0 0.0
2017-Oct-14 14:29N 58°20' E 006°16'0 0.0
2017-Oct-14 13:59N 58°20' E 006°16'0 0.0
2017-Oct-14 13:29N 58°20' E 006°16'0 0.0
2017-Oct-14 12:59N 58°20' E 006°16'0 0.0
2017-Oct-14 12:26N 58°20' E 006°16'0 0.0
2017-Oct-14 11:56N 58°20' E 006°16'0 0.0
2017-Oct-14 11:29N 58°20' E 006°16'0 0.0
2017-Oct-14 10:59N 58°20' E 006°16'0 0.0
2017-Oct-14 10:29N 58°20' E 006°16'0 0.0
2017-Oct-14 09:56N 58°20' E 006°16'0 0.0
2017-Oct-14 09:29N 58°20' E 006°16'0 0.0
2017-Oct-14 08:59N 58°20' E 006°16'0 0.0
2017-Oct-14 08:29N 58°20' E 006°16'0 0.0
2017-Oct-14 07:59N 58°20' E 006°16'0 0.1
2017-Oct-14 07:30N 58°20' E 006°16'3 6.0
2017-Oct-14 06:59N 58°18' E 006°11'511.0
2017-Oct-14 06:30N 58°18' E 006°01'511.0
2017-Oct-14 06:00N 58°17' E 005°51'510.4
2017-Oct-14 05:30N 58°17' E 005°41'510.3
2017-Oct-14 05:00N 58°17' E 005°31'30 9.8
2017-Oct-14 01:54N 58°21' E 004°34'4 9.8
2017-Oct-14 01:30N 58°22' E 004°26'5 9.8
2017-Oct-14 01:01N 58°22' E 004°17'910.0
2017-Oct-14 00:04N 58°22' E 003°59'211 9.0
2017-Oct-13 00:38N 58°42' W 002°42'1 9.9
2017-Oct-13 00:30N 58°42' W 002°45'510.2
2017-Oct-13 00:00N 58°43' W 002°54'612.0
2017-Oct-12 23:30N 58°43' W 003°06'611.7
2017-Oct-12 23:00N 58°43' W 003°17'510.4
2017-Oct-12 22:30N 58°42' W 003°27'510.6
2017-Oct-12 22:00N 58°42' W 003°38'510.9
2017-Oct-12 21:30N 58°42' W 003°48'510.7
2017-Oct-12 21:00N 58°42' W 003°58'510.4
2017-Oct-12 20:30N 58°41' W 004°08'36 9.0
2017-Oct-12 16:30N 58°31' W 005°14'164 9.3
2017-Oct-11 22:50N 55°55' W 006°52'3 8.0
2017-Oct-11 22:29N 55°53' W 006°50'4 8.1
2017-Oct-11 22:00N 55°49' W 006°46'4 8.0
2017-Oct-11 21:30N 55°46' W 006°43'4 8.5
2017-Oct-11 21:00N 55°42' W 006°39'4 8.6
2017-Oct-11 20:30N 55°39' W 006°35'4 8.4
2017-Oct-11 20:00N 55°36' W 006°30'5 9.7
2017-Oct-11 19:30N 55°32' W 006°24'510.4
2017-Oct-11 19:00N 55°28' W 006°17'5 9.7
2017-Oct-11 18:30N 55°26' W 006°10'511.0
2017-Oct-11 18:00N 55°23' W 006°02'612.5
2017-Oct-11 17:30N 55°18' W 005°55'613.1
2017-Oct-11 17:00N 55°13' W 005°48'146 8.6
2017-Oct-11 00:00N 53°24' W 003°01'4 7.4
2017-Oct-10 23:30N 53°21' W 002°58'2 3.5
2017-Oct-10 23:00N 53°19' W 002°57'0 0.8
2017-Oct-10 22:30N 53°19' W 002°56'3 5.6
2017-Oct-10 22:00N 53°17' W 002°53'3 5.3
2017-Oct-10 21:30N 53°17' W 002°48'3 5.6
2017-Oct-10 21:00N 53°20' W 002°46'1 1.2
2017-Oct-10 20:30N 53°20' W 002°45'0 0.0
2017-Oct-10 19:55N 53°20' W 002°45'0 0.0
2017-Oct-10 19:28N 53°20' W 002°45'0 0.0
2017-Oct-10 18:58N 53°20' W 002°45'0 0.0
2017-Oct-10 18:22N 53°20' W 002°45'0 0.0
2017-Oct-10 17:58N 53°20' W 002°45'0 0.0
2017-Oct-10 17:28N 53°20' W 002°45'0 0.0
2017-Oct-10 16:58N 53°20' W 002°45'0 0.0
2017-Oct-10 16:28N 53°20' W 002°45'0 0.0
2017-Oct-10 15:58N 53°20' W 002°45'0 0.0
2017-Oct-10 15:28N 53°20' W 002°45'0 0.0
2017-Oct-10 14:58N 53°20' W 002°45'0 0.0
2017-Oct-10 13:58N 53°20' W 002°45'0 0.0
2017-Oct-10 13:28N 53°20' W 002°45'0 0.0
2017-Oct-10 12:58N 53°20' W 002°45'0 0.0
2017-Oct-10 12:22N 53°20' W 002°45'0 0.0
2017-Oct-10 11:58N 53°20' W 002°45'0 0.0
2017-Oct-10 11:28N 53°20' W 002°45'0 0.0
2017-Oct-10 10:58N 53°20' W 002°45'0 0.0
2017-Oct-10 10:28N 53°20' W 002°45'0 0.0
2017-Oct-10 09:58N 53°20' W 002°45'0 0.0
2017-Oct-10 09:28N 53°20' W 002°45'0 0.0
2017-Oct-10 08:58N 53°20' W 002°45'0 0.0
2017-Oct-10 08:28N 53°20' W 002°45'0 0.0
2017-Oct-10 07:58N 53°20' W 002°45'0 0.0
2017-Oct-10 07:28N 53°20' W 002°45'0 0.0
2017-Oct-10 06:58N 53°20' W 002°45'0 0.0
2017-Oct-10 06:28N 53°20' W 002°45'0 0.0
2017-Oct-10 05:55N 53°20' W 002°45'0 0.0
2017-Oct-10 05:28N 53°20' W 002°45'0 0.0
2017-Oct-10 04:55N 53°20' W 002°45'0 0.0
2017-Oct-10 04:28N 53°20' W 002°45'0 0.0
2017-Oct-10 03:58N 53°20' W 002°45'0 0.0
2017-Oct-10 03:28N 53°20' W 002°45'0 0.0
2017-Oct-10 02:58N 53°20' W 002°45'0 0.0
2017-Oct-10 02:28N 53°20' W 002°45'0 0.0
2017-Oct-10 01:58N 53°20' W 002°45'0 0.0
2017-Oct-10 01:28N 53°20' W 002°45'0 0.0
2017-Oct-10 00:58N 53°20' W 002°45'0 0.0
2017-Oct-10 00:25N 53°20' W 002°45'0 0.0
2017-Oct-09 23:49N 53°20' W 002°45'0 0.0
2017-Oct-09 23:28N 53°20' W 002°45'0 0.0
2017-Oct-09 22:58N 53°20' W 002°45'0 0.0
2017-Oct-09 22:28N 53°20' W 002°45'0 0.0
2017-Oct-09 21:58N 53°20' W 002°45'0 0.0
2017-Oct-09 21:28N 53°20' W 002°45'0 0.0
2017-Oct-09 20:58N 53°20' W 002°45'0 0.0
2017-Oct-09 20:28N 53°20' W 002°45'0 0.0
2017-Oct-09 19:58N 53°20' W 002°45'0 0.0
2017-Oct-09 19:28N 53°20' W 002°45'0 0.0
2017-Oct-09 18:58N 53°20' W 002°45'0 0.0
2017-Oct-09 18:28N 53°20' W 002°45'0 0.0
2017-Oct-09 17:58N 53°20' W 002°45'0 0.0
2017-Oct-09 17:28N 53°20' W 002°45'0 0.0
2017-Oct-09 16:58N 53°20' W 002°45'0 0.0
2017-Oct-09 16:28N 53°20' W 002°45'0 0.0
2017-Oct-09 15:58N 53°20' W 002°45'0 0.0
2017-Oct-09 15:28N 53°20' W 002°45'0 0.0
2017-Oct-09 14:46N 53°20' W 002°45'0 0.0
2017-Oct-09 14:28N 53°20' W 002°45'0 0.0
2017-Oct-09 13:58N 53°20' W 002°45'0 0.0
2017-Oct-09 13:28N 53°20' W 002°45'0 0.0
2017-Oct-09 12:58N 53°20' W 002°45'0 0.0
2017-Oct-09 12:07N 53°20' W 002°45'0 0.0
2017-Oct-09 11:55N 53°20' W 002°45'0 0.0
2017-Oct-09 11:28N 53°20' W 002°45'0 0.0
2017-Oct-09 10:58N 53°20' W 002°45'0 0.0
2017-Oct-09 10:28N 53°20' W 002°45'0 0.0
2017-Oct-09 09:58N 53°20' W 002°45'0 0.0
2017-Oct-09 09:28N 53°20' W 002°45'0 0.0
2017-Oct-09 08:58N 53°20' W 002°45'0 0.0
2017-Oct-09 08:28N 53°20' W 002°45'0 0.0
2017-Oct-09 07:58N 53°20' W 002°45'0 0.0
2017-Oct-09 07:16N 53°20' W 002°45'0 0.0
2017-Oct-09 06:58N 53°20' W 002°45'0 0.0
2017-Oct-09 06:28N 53°20' W 002°45'0 0.0
2017-Oct-09 05:58N 53°20' W 002°45'0 0.0
2017-Oct-09 05:28N 53°20' W 002°45'0 0.0
2017-Oct-09 04:58N 53°20' W 002°45'0 0.0
2017-Oct-09 04:28N 53°20' W 002°45'0 0.0
2017-Oct-09 03:58N 53°20' W 002°45'0 0.0
2017-Oct-09 03:28N 53°20' W 002°45'0 0.0
2017-Oct-09 02:58N 53°20' W 002°45'0 0.0
2017-Oct-09 02:28N 53°20' W 002°45'0 0.0
2017-Oct-09 01:58N 53°20' W 002°45'0 0.0
2017-Oct-09 01:28N 53°20' W 002°45'0 0.0
2017-Oct-09 00:58N 53°20' W 002°45'0 0.0
2017-Oct-09 00:28N 53°20' W 002°45'0 0.0
2017-Oct-08 23:58N 53°20' W 002°45'0 0.0
2017-Oct-08 23:25N 53°20' W 002°45'0 0.0
2017-Oct-08 22:52N 53°20' W 002°45'0 0.0
2017-Oct-08 22:28N 53°20' W 002°45'0 0.0
2017-Oct-08 21:55N 53°20' W 002°45'0 0.0
2017-Oct-08 21:28N 53°20' W 002°45'0 0.0
2017-Oct-08 20:55N 53°20' W 002°45'0 0.0
2017-Oct-08 20:28N 53°20' W 002°45'0 0.0
2017-Oct-08 19:58N 53°20' W 002°45'0 0.0
2017-Oct-08 19:28N 53°20' W 002°45'0 0.0
2017-Oct-08 18:58N 53°20' W 002°45'0 0.0
2017-Oct-08 18:22N 53°20' W 002°45'0 0.0
2017-Oct-08 17:58N 53°20' W 002°45'0 0.0
2017-Oct-08 17:28N 53°20' W 002°45'0 0.0
2017-Oct-08 16:58N 53°20' W 002°45'0 0.2
2017-Oct-08 16:30N 53°20' W 002°45'1 1.3
2017-Oct-08 16:00N 53°20' W 002°46'2 4.3
2017-Oct-08 15:30N 53°18' W 002°47'3 5.6
2017-Oct-08 15:00N 53°17' W 002°51'2 4.6
2017-Oct-08 14:30N 53°18' W 002°55'2 3.3
2017-Oct-08 14:00N 53°19' W 002°57'1 1.4
2017-Oct-08 13:30N 53°20' W 002°57'3 5.2
2017-Oct-08 13:00N 53°22' W 002°59'3 5.3
2017-Oct-08 12:30N 53°25' W 003°01'4 8.9
2017-Oct-08 12:00N 53°29' W 003°05'4 8.8
2017-Oct-08 11:30N 53°32' W 003°10'5 9.9
2017-Oct-08 11:00N 53°32' W 003°18'2 4.4
2017-Oct-08 10:30N 53°31' W 003°22'3 5.8
2017-Oct-08 10:00N 53°29' W 003°24'0 0.2
2017-Oct-08 09:26N 53°28' W 003°24'0 0.0
2017-Oct-08 08:59N 53°28' W 003°24'0 0.0
2017-Oct-08 08:29N 53°28' W 003°24'0 0.0
2017-Oct-08 07:59N 53°28' W 003°24'0 0.0
2017-Oct-08 07:26N 53°28' W 003°24'0 0.0
2017-Oct-08 06:59N 53°28' W 003°24'0 0.3
2017-Oct-08 06:29N 53°28' W 003°24'0 0.1
2017-Oct-08 05:59N 53°28' W 003°24'0 0.0
2017-Oct-08 05:29N 53°28' W 003°24'0 0.0
2017-Oct-08 04:59N 53°28' W 003°24'0 0.0
2017-Oct-08 04:26N 53°28' W 003°24'0 0.0
2017-Oct-08 03:59N 53°28' W 003°24'0 0.0
2017-Oct-08 03:29N 53°28' W 003°24'0 0.0
2017-Oct-08 02:59N 53°28' W 003°24'0 0.0
2017-Oct-08 02:29N 53°28' W 003°24'0 0.0
2017-Oct-08 01:59N 53°28' W 003°24'0 0.2
2017-Oct-08 01:29N 53°28' W 003°24'0 0.2
2017-Oct-08 00:59N 53°28' W 003°24'0 0.1
2017-Oct-08 00:29N 53°28' W 003°24'0 0.0
2017-Oct-07 23:59N 53°28' W 003°24'0 0.0
2017-Oct-07 23:26N 53°28' W 003°24'0 0.0
2017-Oct-07 22:59N 53°28' W 003°24'  

Dump ship's entire track history